sensor_id;sensor_type;location;lat;lon;timestamp;P1;durP1;ratioP1;P2;durP2;ratioP2
55134;SDS011;41031;44.750;11.308;2023-03-01T00:01:29;18.47;;;13.03;;
55134;SDS011;41031;44.750;11.308;2023-03-01T00:03:57;18.83;;;12.53;;
55134;SDS011;41031;44.750;11.308;2023-03-01T00:06:27;19.83;;;12.60;;
55134;SDS011;41031;44.750;11.308;2023-03-01T00:08:55;23.87;;;12.73;;
55134;SDS011;41031;44.750;11.308;2023-03-01T00:11:25;18.53;;;12.20;;
55134;SDS011;41031;44.750;11.308;2023-03-01T00:13:54;21.47;;;13.07;;
55134;SDS011;41031;44.750;11.308;2023-03-01T00:16:25;19.00;;;12.47;;
55134;SDS011;41031;44.750;11.308;2023-03-01T00:19:00;18.07;;;12.77;;
55134;SDS011;41031;44.750;11.308;2023-03-01T00:21:27;19.20;;;12.17;;
55134;SDS011;41031;44.750;11.308;2023-03-01T00:23:54;21.23;;;13.03;;
55134;SDS011;41031;44.750;11.308;2023-03-01T00:26:22;21.87;;;13.70;;
55134;SDS011;41031;44.750;11.308;2023-03-01T00:28:51;18.90;;;13.37;;
55134;SDS011;41031;44.750;11.308;2023-03-01T00:31:20;17.83;;;13.27;;
55134;SDS011;41031;44.750;11.308;2023-03-01T00:33:51;26.33;;;13.20;;
55134;SDS011;41031;44.750;11.308;2023-03-01T00:36:25;18.53;;;12.53;;
55134;SDS011;41031;44.750;11.308;2023-03-01T00:38:53;18.50;;;12.40;;
55134;SDS011;41031;44.750;11.308;2023-03-01T00:41:21;20.30;;;12.60;;
55134;SDS011;41031;44.750;11.308;2023-03-01T00:43:49;19.53;;;12.87;;
55134;SDS011;41031;44.750;11.308;2023-03-01T00:46:20;19.33;;;13.10;;
55134;SDS011;41031;44.750;11.308;2023-03-01T00:48:48;20.97;;;12.50;;
55134;SDS011;41031;44.750;11.308;2023-03-01T00:51:17;16.67;;;11.93;;
55134;SDS011;41031;44.750;11.308;2023-03-01T00:53:47;16.23;;;11.83;;
55134;SDS011;41031;44.750;11.308;2023-03-01T00:56:16;22.57;;;11.67;;
55134;SDS011;41031;44.750;11.308;2023-03-01T00:58:43;18.37;;;12.80;;
55134;SDS011;41031;44.750;11.308;2023-03-01T01:01:17;17.33;;;11.63;;
55134;SDS011;41031;44.750;11.308;2023-03-01T01:03:52;19.70;;;12.10;;
55134;SDS011;41031;44.750;11.308;2023-03-01T01:06:23;21.23;;;12.23;;
55134;SDS011;41031;44.750;11.308;2023-03-01T01:08:53;18.47;;;13.60;;
55134;SDS011;41031;44.750;11.308;2023-03-01T01:11:21;19.63;;;14.03;;
55134;SDS011;41031;44.750;11.308;2023-03-01T01:13:50;24.70;;;12.47;;
55134;SDS011;41031;44.750;11.308;2023-03-01T01:16:24;18.50;;;12.17;;
55134;SDS011;41031;44.750;11.308;2023-03-01T01:18:52;18.50;;;12.40;;
55134;SDS011;41031;44.750;11.308;2023-03-01T01:21:21;19.77;;;13.13;;
55134;SDS011;41031;44.750;11.308;2023-03-01T01:23:50;21.63;;;13.43;;
55134;SDS011;41031;44.750;11.308;2023-03-01T01:26:22;17.90;;;11.40;;
55134;SDS011;41031;44.750;11.308;2023-03-01T01:28:51;19.00;;;13.00;;
55134;SDS011;41031;44.750;11.308;2023-03-01T01:31:20;19.47;;;12.97;;
55134;SDS011;41031;44.750;11.308;2023-03-01T01:33:50;22.97;;;13.13;;
55134;SDS011;41031;44.750;11.308;2023-03-01T01:36:17;19.50;;;12.57;;
55134;SDS011;41031;44.750;11.308;2023-03-01T01:38:45;16.00;;;11.97;;
55134;SDS011;41031;44.750;11.308;2023-03-01T01:41:12;19.83;;;12.37;;
55134;SDS011;41031;44.750;11.308;2023-03-01T01:43:41;18.90;;;12.97;;
55134;SDS011;41031;44.750;11.308;2023-03-01T01:46:20;18.73;;;12.73;;
55134;SDS011;41031;44.750;11.308;2023-03-01T01:48:54;20.43;;;12.57;;
55134;SDS011;41031;44.750;11.308;2023-03-01T01:51:33;17.80;;;12.53;;
55134;SDS011;41031;44.750;11.308;2023-03-01T01:54:06;20.20;;;12.23;;
55134;SDS011;41031;44.750;11.308;2023-03-01T01:56:44;19.23;;;12.80;;
55134;SDS011;41031;44.750;11.308;2023-03-01T01:59:16;18.13;;;12.87;;
55134;SDS011;41031;44.750;11.308;2023-03-01T02:01:43;20.10;;;12.77;;
55134;SDS011;41031;44.750;11.308;2023-03-01T02:04:11;16.90;;;11.20;;
55134;SDS011;41031;44.750;11.308;2023-03-01T02:06:39;16.80;;;11.60;;
55134;SDS011;41031;44.750;11.308;2023-03-01T02:09:12;18.27;;;12.30;;
55134;SDS011;41031;44.750;11.308;2023-03-01T02:11:41;18.83;;;11.80;;
55134;SDS011;41031;44.750;11.308;2023-03-01T02:14:10;19.20;;;12.70;;
55134;SDS011;41031;44.750;11.308;2023-03-01T02:16:38;23.33;;;13.77;;
55134;SDS011;41031;44.750;11.308;2023-03-01T02:19:06;20.53;;;12.60;;
55134;SDS011;41031;44.750;11.308;2023-03-01T02:21:38;17.87;;;12.77;;
55134;SDS011;41031;44.750;11.308;2023-03-01T02:27:17;19.03;;;12.57;;
55134;SDS011;41031;44.750;11.308;2023-03-01T02:29:51;18.90;;;12.70;;
55134;SDS011;41031;44.750;11.308;2023-03-01T02:32:18;20.40;;;12.33;;
55134;SDS011;41031;44.750;11.308;2023-03-01T02:34:54;14.67;;;11.00;;
55134;SDS011;41031;44.750;11.308;2023-03-01T02:37:23;15.40;;;11.63;;
55134;SDS011;41031;44.750;11.308;2023-03-01T02:39:58;17.13;;;11.23;;
55134;SDS011;41031;44.750;11.308;2023-03-01T02:42:33;16.63;;;12.23;;
55134;SDS011;41031;44.750;11.308;2023-03-01T02:45:07;17.97;;;12.33;;
55134;SDS011;41031;44.750;11.308;2023-03-01T02:47:35;16.93;;;11.47;;
55134;SDS011;41031;44.750;11.308;2023-03-01T02:50:10;16.57;;;11.63;;
55134;SDS011;41031;44.750;11.308;2023-03-01T02:52:47;17.53;;;12.60;;
55134;SDS011;41031;44.750;11.308;2023-03-01T02:55:22;17.70;;;12.43;;
55134;SDS011;41031;44.750;11.308;2023-03-01T02:57:52;16.97;;;11.97;;
55134;SDS011;41031;44.750;11.308;2023-03-01T03:00:23;15.13;;;11.70;;
55134;SDS011;41031;44.750;11.308;2023-03-01T03:02:55;18.87;;;11.97;;
55134;SDS011;41031;44.750;11.308;2023-03-01T03:05:25;22.93;;;12.43;;
55134;SDS011;41031;44.750;11.308;2023-03-01T03:07:56;17.77;;;12.60;;
55134;SDS011;41031;44.750;11.308;2023-03-01T03:10:33;16.60;;;11.90;;
55134;SDS011;41031;44.750;11.308;2023-03-01T03:13:04;16.67;;;12.27;;
55134;SDS011;41031;44.750;11.308;2023-03-01T03:15:33;19.47;;;11.80;;
55134;SDS011;41031;44.750;11.308;2023-03-01T03:18:03;16.17;;;11.27;;
55134;SDS011;41031;44.750;11.308;2023-03-01T03:20:32;17.47;;;12.20;;
55134;SDS011;41031;44.750;11.308;2023-03-01T03:23:00;19.60;;;12.10;;
55134;SDS011;41031;44.750;11.308;2023-03-01T03:25:27;17.27;;;11.20;;
55134;SDS011;41031;44.750;11.308;2023-03-01T03:27:55;15.93;;;10.90;;
55134;SDS011;41031;44.750;11.308;2023-03-01T03:30:29;19.87;;;12.17;;
55134;SDS011;41031;44.750;11.308;2023-03-01T03:32:58;15.33;;;11.00;;
55134;SDS011;41031;44.750;11.308;2023-03-01T03:35:29;17.77;;;12.17;;
55134;SDS011;41031;44.750;11.308;2023-03-01T03:37:58;18.27;;;12.97;;
55134;SDS011;41031;44.750;11.308;2023-03-01T03:40:34;17.00;;;11.83;;
55134;SDS011;41031;44.750;11.308;2023-03-01T03:43:04;19.77;;;12.53;;
55134;SDS011;41031;44.750;11.308;2023-03-01T03:45:51;20.93;;;13.03;;
55134;SDS011;41031;44.750;11.308;2023-03-01T03:48:20;19.07;;;13.47;;
55134;SDS011;41031;44.750;11.308;2023-03-01T03:50:49;20.77;;;14.03;;
55134;SDS011;41031;44.750;11.308;2023-03-01T03:53:19;17.90;;;11.93;;
55134;SDS011;41031;44.750;11.308;2023-03-01T03:55:47;17.10;;;12.67;;
55134;SDS011;41031;44.750;11.308;2023-03-01T03:58:18;23.07;;;13.30;;
55134;SDS011;41031;44.750;11.308;2023-03-01T04:00:48;20.47;;;13.80;;
55134;SDS011;41031;44.750;11.308;2023-03-01T04:03:18;18.97;;;12.60;;
55134;SDS011;41031;44.750;11.308;2023-03-01T04:05:46;20.00;;;14.10;;
55134;SDS011;41031;44.750;11.308;2023-03-01T04:08:14;23.03;;;13.93;;
55134;SDS011;41031;44.750;11.308;2023-03-01T04:10:45;20.97;;;13.33;;
55134;SDS011;41031;44.750;11.308;2023-03-01T04:13:16;22.50;;;13.40;;
55134;SDS011;41031;44.750;11.308;2023-03-01T04:15:49;19.93;;;13.77;;
55134;SDS011;41031;44.750;11.308;2023-03-01T04:18:17;20.10;;;13.70;;
55134;SDS011;41031;44.750;11.308;2023-03-01T04:20:46;17.50;;;12.67;;
55134;SDS011;41031;44.750;11.308;2023-03-01T04:23:15;22.90;;;12.63;;
55134;SDS011;41031;44.750;11.308;2023-03-01T04:28:21;20.10;;;14.23;;
55134;SDS011;41031;44.750;11.308;2023-03-01T04:31:07;23.47;;;13.73;;
55134;SDS011;41031;44.750;11.308;2023-03-01T04:33:44;22.57;;;13.33;;
55134;SDS011;41031;44.750;11.308;2023-03-01T04:36:27;22.93;;;13.40;;
55134;SDS011;41031;44.750;11.308;2023-03-01T04:38:56;19.20;;;13.40;;
55134;SDS011;41031;44.750;11.308;2023-03-01T04:41:24;20.90;;;13.30;;
55134;SDS011;41031;44.750;11.308;2023-03-01T04:43:52;19.53;;;13.33;;
55134;SDS011;41031;44.750;11.308;2023-03-01T04:46:20;19.20;;;13.57;;
55134;SDS011;41031;44.750;11.308;2023-03-01T04:48:48;19.47;;;13.13;;
55134;SDS011;41031;44.750;11.308;2023-03-01T04:51:15;21.53;;;12.93;;
55134;SDS011;41031;44.750;11.308;2023-03-01T04:53:45;21.97;;;12.27;;
55134;SDS011;41031;44.750;11.308;2023-03-01T04:56:13;19.70;;;13.13;;
55134;SDS011;41031;44.750;11.308;2023-03-01T04:58:41;15.73;;;11.93;;
55134;SDS011;41031;44.750;11.308;2023-03-01T05:01:11;18.97;;;11.87;;
55134;SDS011;41031;44.750;11.308;2023-03-01T05:03:44;17.80;;;12.37;;
55134;SDS011;41031;44.750;11.308;2023-03-01T05:06:16;20.00;;;12.63;;
55134;SDS011;41031;44.750;11.308;2023-03-01T05:08:44;19.73;;;13.37;;
55134;SDS011;41031;44.750;11.308;2023-03-01T05:11:12;17.83;;;11.60;;
55134;SDS011;41031;44.750;11.308;2023-03-01T05:13:39;18.27;;;12.23;;
55134;SDS011;41031;44.750;11.308;2023-03-01T05:16:07;16.37;;;11.67;;
55134;SDS011;41031;44.750;11.308;2023-03-01T05:18:39;18.00;;;11.63;;
55134;SDS011;41031;44.750;11.308;2023-03-01T05:21:11;17.50;;;12.27;;
55134;SDS011;41031;44.750;11.308;2023-03-01T05:23:42;17.13;;;12.43;;
55134;SDS011;41031;44.750;11.308;2023-03-01T05:26:10;19.50;;;12.57;;
55134;SDS011;41031;44.750;11.308;2023-03-01T05:28:53;17.67;;;12.80;;
55134;SDS011;41031;44.750;11.308;2023-03-01T05:31:26;16.63;;;12.10;;
55134;SDS011;41031;44.750;11.308;2023-03-01T05:33:54;20.53;;;13.00;;
55134;SDS011;41031;44.750;11.308;2023-03-01T05:36:21;18.30;;;12.40;;
55134;SDS011;41031;44.750;11.308;2023-03-01T05:38:49;20.03;;;12.90;;
55134;SDS011;41031;44.750;11.308;2023-03-01T05:41:16;21.33;;;12.83;;
55134;SDS011;41031;44.750;11.308;2023-03-01T05:43:44;22.10;;;13.83;;
55134;SDS011;41031;44.750;11.308;2023-03-01T05:46:11;20.97;;;12.50;;
55134;SDS011;41031;44.750;11.308;2023-03-01T05:48:42;17.03;;;12.23;;
55134;SDS011;41031;44.750;11.308;2023-03-01T05:51:10;19.43;;;13.13;;
55134;SDS011;41031;44.750;11.308;2023-03-01T05:53:38;18.93;;;12.83;;
55134;SDS011;41031;44.750;11.308;2023-03-01T05:56:06;20.40;;;12.57;;
55134;SDS011;41031;44.750;11.308;2023-03-01T05:58:34;17.40;;;12.37;;
55134;SDS011;41031;44.750;11.308;2023-03-01T06:01:02;18.00;;;12.00;;
55134;SDS011;41031;44.750;11.308;2023-03-01T06:03:30;17.73;;;12.57;;
55134;SDS011;41031;44.750;11.308;2023-03-01T06:05:58;19.87;;;12.60;;
55134;SDS011;41031;44.750;11.308;2023-03-01T06:08:28;22.20;;;13.00;;
55134;SDS011;41031;44.750;11.308;2023-03-01T06:10:55;21.03;;;12.70;;
55134;SDS011;41031;44.750;11.308;2023-03-01T06:13:24;18.73;;;12.43;;
55134;SDS011;41031;44.750;11.308;2023-03-01T06:15:52;17.30;;;12.73;;
55134;SDS011;41031;44.750;11.308;2023-03-01T06:18:19;19.17;;;12.53;;
55134;SDS011;41031;44.750;11.308;2023-03-01T06:20:52;18.77;;;12.80;;
55134;SDS011;41031;44.750;11.308;2023-03-01T06:23:25;16.03;;;12.43;;
55134;SDS011;41031;44.750;11.308;2023-03-01T06:25:53;22.80;;;13.20;;
55134;SDS011;41031;44.750;11.308;2023-03-01T06:28:24;18.43;;;12.53;;
55134;SDS011;41031;44.750;11.308;2023-03-01T06:30:53;18.93;;;11.63;;
55134;SDS011;41031;44.750;11.308;2023-03-01T06:33:26;22.63;;;12.37;;
55134;SDS011;41031;44.750;11.308;2023-03-01T06:35:56;21.50;;;13.63;;
55134;SDS011;41031;44.750;11.308;2023-03-01T06:38:24;22.57;;;13.00;;
55134;SDS011;41031;44.750;11.308;2023-03-01T06:40:53;18.20;;;11.90;;
55134;SDS011;41031;44.750;11.308;2023-03-01T06:43:23;19.97;;;12.23;;
55134;SDS011;41031;44.750;11.308;2023-03-01T06:45:51;16.17;;;11.17;;
55134;SDS011;41031;44.750;11.308;2023-03-01T06:48:18;16.60;;;11.37;;
55134;SDS011;41031;44.750;11.308;2023-03-01T06:50:46;17.83;;;11.13;;
55134;SDS011;41031;44.750;11.308;2023-03-01T06:53:15;16.20;;;10.93;;
55134;SDS011;41031;44.750;11.308;2023-03-01T06:55:45;19.30;;;10.80;;
55134;SDS011;41031;44.750;11.308;2023-03-01T06:58:13;16.70;;;10.97;;
55134;SDS011;41031;44.750;11.308;2023-03-01T07:00:44;19.70;;;11.70;;
55134;SDS011;41031;44.750;11.308;2023-03-01T07:03:12;18.63;;;11.23;;
55134;SDS011;41031;44.750;11.308;2023-03-01T07:05:39;17.87;;;11.27;;
55134;SDS011;41031;44.750;11.308;2023-03-01T07:08:07;19.93;;;12.23;;
55134;SDS011;41031;44.750;11.308;2023-03-01T07:10:35;16.10;;;10.27;;
55134;SDS011;41031;44.750;11.308;2023-03-01T07:13:03;15.63;;;11.00;;
55134;SDS011;41031;44.750;11.308;2023-03-01T07:15:37;18.23;;;10.97;;
55134;SDS011;41031;44.750;11.308;2023-03-01T07:18:08;14.70;;;10.27;;
55134;SDS011;41031;44.750;11.308;2023-03-01T07:20:37;19.57;;;11.13;;
55134;SDS011;41031;44.750;11.308;2023-03-01T07:23:05;16.30;;;10.27;;
55134;SDS011;41031;44.750;11.308;2023-03-01T07:25:33;17.20;;;11.23;;
55134;SDS011;41031;44.750;11.308;2023-03-01T07:28:03;18.13;;;11.93;;
55134;SDS011;41031;44.750;11.308;2023-03-01T07:30:31;20.73;;;11.80;;
55134;SDS011;41031;44.750;11.308;2023-03-01T07:32:59;20.47;;;12.03;;
55134;SDS011;41031;44.750;11.308;2023-03-01T07:35:28;16.73;;;10.63;;
55134;SDS011;41031;44.750;11.308;2023-03-01T07:37:55;14.97;;;11.03;;
55134;SDS011;41031;44.750;11.308;2023-03-01T07:40:26;18.57;;;12.50;;
55134;SDS011;41031;44.750;11.308;2023-03-01T07:42:58;18.23;;;11.53;;
55134;SDS011;41031;44.750;11.308;2023-03-01T07:45:25;15.27;;;10.83;;
55134;SDS011;41031;44.750;11.308;2023-03-01T07:47:53;18.00;;;11.33;;
55134;SDS011;41031;44.750;11.308;2023-03-01T07:50:21;15.40;;;11.10;;
55134;SDS011;41031;44.750;11.308;2023-03-01T07:52:50;17.50;;;11.27;;
55134;SDS011;41031;44.750;11.308;2023-03-01T07:55:17;15.63;;;10.20;;
55134;SDS011;41031;44.750;11.308;2023-03-01T07:57:46;17.23;;;12.13;;
55134;SDS011;41031;44.750;11.308;2023-03-01T08:00:16;14.97;;;10.43;;
55134;SDS011;41031;44.750;11.308;2023-03-01T08:02:44;15.83;;;11.47;;
55134;SDS011;41031;44.750;11.308;2023-03-01T08:05:12;15.60;;;10.73;;
55134;SDS011;41031;44.750;11.308;2023-03-01T08:07:39;15.30;;;10.40;;
55134;SDS011;41031;44.750;11.308;2023-03-01T08:10:08;15.23;;;9.37;;
55134;SDS011;41031;44.750;11.308;2023-03-01T08:12:47;16.17;;;10.57;;
55134;SDS011;41031;44.750;11.308;2023-03-01T08:15:19;15.73;;;9.90;;
55134;SDS011;41031;44.750;11.308;2023-03-01T08:17:48;15.00;;;10.13;;
55134;SDS011;41031;44.750;11.308;2023-03-01T08:20:17;17.00;;;9.73;;
55134;SDS011;41031;44.750;11.308;2023-03-01T08:22:47;19.50;;;10.40;;
55134;SDS011;41031;44.750;11.308;2023-03-01T08:25:15;14.77;;;9.57;;
55134;SDS011;41031;44.750;11.308;2023-03-01T08:27:47;17.00;;;10.07;;
55134;SDS011;41031;44.750;11.308;2023-03-01T08:30:16;16.40;;;10.13;;
55134;SDS011;41031;44.750;11.308;2023-03-01T08:32:45;17.03;;;10.50;;
55134;SDS011;41031;44.750;11.308;2023-03-01T08:35:14;15.07;;;10.50;;
55134;SDS011;41031;44.750;11.308;2023-03-01T08:37:42;18.73;;;10.77;;
55134;SDS011;41031;44.750;11.308;2023-03-01T08:40:13;16.40;;;10.23;;
55134;SDS011;41031;44.750;11.308;2023-03-01T08:42:42;18.50;;;10.70;;
55134;SDS011;41031;44.750;11.308;2023-03-01T08:45:10;21.53;;;10.57;;
55134;SDS011;41031;44.750;11.308;2023-03-01T08:47:47;21.10;;;11.00;;
55134;SDS011;41031;44.750;11.308;2023-03-01T08:50:21;15.97;;;11.33;;
55134;SDS011;41031;44.750;11.308;2023-03-01T08:52:52;17.70;;;11.07;;
55134;SDS011;41031;44.750;11.308;2023-03-01T08:55:21;16.90;;;11.73;;
55134;SDS011;41031;44.750;11.308;2023-03-01T08:57:50;19.53;;;11.13;;
55134;SDS011;41031;44.750;11.308;2023-03-01T09:00:18;16.77;;;12.00;;
55134;SDS011;41031;44.750;11.308;2023-03-01T09:02:52;18.57;;;11.80;;
55134;SDS011;41031;44.750;11.308;2023-03-01T09:05:20;27.30;;;13.87;;
55134;SDS011;41031;44.750;11.308;2023-03-01T09:07:49;19.07;;;12.10;;
55134;SDS011;41031;44.750;11.308;2023-03-01T09:10:17;19.00;;;11.53;;
55134;SDS011;41031;44.750;11.308;2023-03-01T09:12:45;22.33;;;12.60;;
55134;SDS011;41031;44.750;11.308;2023-03-01T09:15:13;24.07;;;12.80;;
55134;SDS011;41031;44.750;11.308;2023-03-01T09:17:42;20.10;;;13.03;;
55134;SDS011;41031;44.750;11.308;2023-03-01T09:20:10;23.80;;;12.63;;
55134;SDS011;41031;44.750;11.308;2023-03-01T09:22:38;22.13;;;12.97;;
55134;SDS011;41031;44.750;11.308;2023-03-01T09:25:08;26.53;;;13.03;;
55134;SDS011;41031;44.750;11.308;2023-03-01T09:27:36;21.23;;;13.10;;
55134;SDS011;41031;44.750;11.308;2023-03-01T09:30:04;19.63;;;13.03;;
55134;SDS011;41031;44.750;11.308;2023-03-01T09:32:32;23.00;;;13.70;;
55134;SDS011;41031;44.750;11.308;2023-03-01T09:35:00;20.70;;;13.40;;
55134;SDS011;41031;44.750;11.308;2023-03-01T09:37:34;24.00;;;14.93;;
55134;SDS011;41031;44.750;11.308;2023-03-01T09:40:03;24.27;;;15.57;;
55134;SDS011;41031;44.750;11.308;2023-03-01T09:42:33;27.40;;;16.37;;
55134;SDS011;41031;44.750;11.308;2023-03-01T09:45:14;19.83;;;14.23;;
55134;SDS011;41031;44.750;11.308;2023-03-01T09:47:56;21.07;;;13.60;;
55134;SDS011;41031;44.750;11.308;2023-03-01T09:50:28;23.67;;;15.07;;
55134;SDS011;41031;44.750;11.308;2023-03-01T09:53:10;20.67;;;14.60;;
55134;SDS011;41031;44.750;11.308;2023-03-01T09:55:49;20.33;;;14.03;;
55134;SDS011;41031;44.750;11.308;2023-03-01T09:58:34;21.27;;;14.23;;
55134;SDS011;41031;44.750;11.308;2023-03-01T10:01:21;20.83;;;13.40;;
55134;SDS011;41031;44.750;11.308;2023-03-01T10:04:02;21.87;;;14.17;;
55134;SDS011;41031;44.750;11.308;2023-03-01T10:06:41;21.50;;;13.63;;
55134;SDS011;41031;44.750;11.308;2023-03-01T10:09:18;22.07;;;14.20;;
55134;SDS011;41031;44.750;11.308;2023-03-01T10:11:47;22.40;;;15.43;;
55134;SDS011;41031;44.750;11.308;2023-03-01T10:17:20;21.47;;;13.97;;
55134;SDS011;41031;44.750;11.308;2023-03-01T10:20:30;22.43;;;15.47;;
55134;SDS011;41031;44.750;11.308;2023-03-01T10:23:00;24.00;;;15.83;;
55134;SDS011;41031;44.750;11.308;2023-03-01T10:31:00;23.97;;;15.50;;
55134;SDS011;41031;44.750;11.308;2023-03-01T10:33:29;24.13;;;15.07;;
55134;SDS011;41031;44.750;11.308;2023-03-01T10:36:04;21.53;;;16.30;;
55134;SDS011;41031;44.750;11.308;2023-03-01T10:38:46;21.30;;;14.93;;
55134;SDS011;41031;44.750;11.308;2023-03-01T10:41:26;25.07;;;16.83;;
55134;SDS011;41031;44.750;11.308;2023-03-01T10:43:56;22.57;;;16.83;;
55134;SDS011;41031;44.750;11.308;2023-03-01T10:51:51;25.87;;;16.70;;
55134;SDS011;41031;44.750;11.308;2023-03-01T10:54:30;27.77;;;18.20;;
55134;SDS011;41031;44.750;11.308;2023-03-01T10:57:01;26.03;;;16.37;;
55134;SDS011;41031;44.750;11.308;2023-03-01T10:59:35;24.07;;;16.13;;
55134;SDS011;41031;44.750;11.308;2023-03-01T11:02:18;27.13;;;16.73;;
55134;SDS011;41031;44.750;11.308;2023-03-01T11:05:13;28.23;;;17.33;;
55134;SDS011;41031;44.750;11.308;2023-03-01T11:07:54;25.53;;;16.43;;
55134;SDS011;41031;44.750;11.308;2023-03-01T11:10:24;23.83;;;16.67;;
55134;SDS011;41031;44.750;11.308;2023-03-01T11:12:53;26.63;;;17.00;;
55134;SDS011;41031;44.750;11.308;2023-03-01T11:15:31;26.57;;;17.30;;
55134;SDS011;41031;44.750;11.308;2023-03-01T11:17:59;27.27;;;17.70;;
55134;SDS011;41031;44.750;11.308;2023-03-01T11:20:39;24.73;;;17.13;;
55134;SDS011;41031;44.750;11.308;2023-03-01T11:23:09;27.67;;;17.23;;
55134;SDS011;41031;44.750;11.308;2023-03-01T11:25:48;25.47;;;15.83;;
55134;SDS011;41031;44.750;11.308;2023-03-01T11:28:23;26.10;;;16.63;;
55134;SDS011;41031;44.750;11.308;2023-03-01T11:33:43;29.07;;;16.17;;
55134;SDS011;41031;44.750;11.308;2023-03-01T11:39:27;24.73;;;17.07;;
55134;SDS011;41031;44.750;11.308;2023-03-01T11:42:06;25.67;;;16.33;;
55134;SDS011;41031;44.750;11.308;2023-03-01T11:44:48;24.87;;;17.80;;
55134;SDS011;41031;44.750;11.308;2023-03-01T11:50:28;25.13;;;16.80;;
55134;SDS011;41031;44.750;11.308;2023-03-01T12:07:53;27.33;;;17.33;;
55134;SDS011;41031;44.750;11.308;2023-03-01T12:10:25;32.50;;;16.70;;
55134;SDS011;41031;44.750;11.308;2023-03-01T12:13:23;27.50;;;17.20;;
55134;SDS011;41031;44.750;11.308;2023-03-01T12:24:55;26.77;;;17.77;;
55134;SDS011;41031;44.750;11.308;2023-03-01T12:33:52;28.27;;;17.23;;
55134;SDS011;41031;44.750;11.308;2023-03-01T12:36:38;28.73;;;18.80;;
55134;SDS011;41031;44.750;11.308;2023-03-01T12:39:16;28.40;;;16.73;;
55134;SDS011;41031;44.750;11.308;2023-03-01T12:42:04;28.77;;;17.13;;
55134;SDS011;41031;44.750;11.308;2023-03-01T12:50:51;28.13;;;19.10;;
55134;SDS011;41031;44.750;11.308;2023-03-01T12:53:25;29.43;;;20.63;;
55134;SDS011;41031;44.750;11.308;2023-03-01T12:56:04;27.97;;;18.30;;
55134;SDS011;41031;44.750;11.308;2023-03-01T13:01:42;28.17;;;18.50;;
55134;SDS011;41031;44.750;11.308;2023-03-01T13:07:33;31.40;;;18.10;;
55134;SDS011;41031;44.750;11.308;2023-03-01T13:10:48;28.90;;;18.73;;
55134;SDS011;41031;44.750;11.308;2023-03-01T13:13:21;34.67;;;19.47;;
55134;SDS011;41031;44.750;11.308;2023-03-01T13:15:51;27.33;;;19.10;;
55134;SDS011;41031;44.750;11.308;2023-03-01T13:20:51;28.47;;;18.23;;
55134;SDS011;41031;44.750;11.308;2023-03-01T13:23:31;32.07;;;18.77;;
55134;SDS011;41031;44.750;11.308;2023-03-01T13:33:52;27.83;;;18.67;;
55134;SDS011;41031;44.750;11.308;2023-03-01T13:38:57;28.13;;;18.67;;
55134;SDS011;41031;44.750;11.308;2023-03-01T13:44:15;25.93;;;17.70;;
55134;SDS011;41031;44.750;11.308;2023-03-01T13:47:15;27.13;;;16.27;;
55134;SDS011;41031;44.750;11.308;2023-03-01T14:00:42;24.07;;;15.57;;
55134;SDS011;41031;44.750;11.308;2023-03-01T14:03:17;23.83;;;16.63;;
55134;SDS011;41031;44.750;11.308;2023-03-01T14:06:00;27.23;;;16.37;;
55134;SDS011;41031;44.750;11.308;2023-03-01T14:08:42;23.07;;;17.27;;
55134;SDS011;41031;44.750;11.308;2023-03-01T14:19:40;23.17;;;15.87;;
55134;SDS011;41031;44.750;11.308;2023-03-01T14:22:19;26.03;;;16.93;;
55134;SDS011;41031;44.750;11.308;2023-03-01T14:24:56;25.87;;;16.83;;
55134;SDS011;41031;44.750;11.308;2023-03-01T14:27:38;21.70;;;15.60;;
55134;SDS011;41031;44.750;11.308;2023-03-01T14:30:25;24.23;;;16.20;;
55134;SDS011;41031;44.750;11.308;2023-03-01T14:33:02;24.80;;;17.33;;
55134;SDS011;41031;44.750;11.308;2023-03-01T14:35:34;23.60;;;16.53;;
55134;SDS011;41031;44.750;11.308;2023-03-01T14:38:03;26.33;;;17.80;;
55134;SDS011;41031;44.750;11.308;2023-03-01T14:43:01;23.60;;;17.13;;
55134;SDS011;41031;44.750;11.308;2023-03-01T14:45:36;22.03;;;16.00;;
55134;SDS011;41031;44.750;11.308;2023-03-01T14:48:04;30.57;;;18.20;;
55134;SDS011;41031;44.750;11.308;2023-03-01T14:50:43;25.93;;;16.53;;
55134;SDS011;41031;44.750;11.308;2023-03-01T14:53:16;27.80;;;17.93;;
55134;SDS011;41031;44.750;11.308;2023-03-01T14:55:50;27.40;;;17.23;;
55134;SDS011;41031;44.750;11.308;2023-03-01T14:58:21;26.33;;;17.60;;
55134;SDS011;41031;44.750;11.308;2023-03-01T15:00:54;28.73;;;17.10;;
55134;SDS011;41031;44.750;11.308;2023-03-01T15:03:36;25.87;;;17.23;;
55134;SDS011;41031;44.750;11.308;2023-03-01T15:06:07;25.57;;;16.63;;
55134;SDS011;41031;44.750;11.308;2023-03-01T15:08:42;26.67;;;17.57;;
55134;SDS011;41031;44.750;11.308;2023-03-01T15:13:52;24.90;;;16.07;;
55134;SDS011;41031;44.750;11.308;2023-03-01T15:18:57;25.40;;;16.73;;
55134;SDS011;41031;44.750;11.308;2023-03-01T15:21:37;25.93;;;16.90;;
55134;SDS011;41031;44.750;11.308;2023-03-01T15:26:56;19.60;;;15.77;;
55134;SDS011;41031;44.750;11.308;2023-03-01T15:29:29;28.80;;;16.87;;
55134;SDS011;41031;44.750;11.308;2023-03-01T15:32:01;26.03;;;16.03;;
55134;SDS011;41031;44.750;11.308;2023-03-01T15:34:34;22.70;;;16.23;;
55134;SDS011;41031;44.750;11.308;2023-03-01T15:37:05;24.13;;;16.67;;
55134;SDS011;41031;44.750;11.308;2023-03-01T15:39:55;25.27;;;16.30;;
55134;SDS011;41031;44.750;11.308;2023-03-01T15:45:10;25.27;;;13.77;;
55134;SDS011;41031;44.750;11.308;2023-03-01T15:47:47;19.70;;;14.10;;
55134;SDS011;41031;44.750;11.308;2023-03-01T15:50:34;19.57;;;12.53;;
55134;SDS011;41031;44.750;11.308;2023-03-01T15:53:10;19.10;;;10.83;;
55134;SDS011;41031;44.750;11.308;2023-03-01T15:55:49;20.97;;;11.73;;
55134;SDS011;41031;44.750;11.308;2023-03-01T15:58:24;14.87;;;9.80;;
55134;SDS011;41031;44.750;11.308;2023-03-01T16:00:57;12.57;;;7.17;;
55134;SDS011;41031;44.750;11.308;2023-03-01T16:03:28;17.80;;;8.90;;
55134;SDS011;41031;44.750;11.308;2023-03-01T16:05:56;23.50;;;14.17;;
55134;SDS011;41031;44.750;11.308;2023-03-01T16:08:24;21.83;;;14.70;;
55134;SDS011;41031;44.750;11.308;2023-03-01T16:10:51;25.83;;;16.37;;
55134;SDS011;41031;44.750;11.308;2023-03-01T16:13:21;22.50;;;14.57;;
55134;SDS011;41031;44.750;11.308;2023-03-01T16:15:48;26.00;;;17.50;;
55134;SDS011;41031;44.750;11.308;2023-03-01T16:18:16;28.37;;;17.13;;
55134;SDS011;41031;44.750;11.308;2023-03-01T16:20:44;20.83;;;14.80;;
55134;SDS011;41031;44.750;11.308;2023-03-01T16:23:12;21.10;;;14.57;;
55134;SDS011;41031;44.750;11.308;2023-03-01T16:25:41;22.07;;;15.23;;
55134;SDS011;41031;44.750;11.308;2023-03-01T16:28:08;20.27;;;13.67;;
55134;SDS011;41031;44.750;11.308;2023-03-01T16:30:38;19.43;;;13.93;;
55134;SDS011;41031;44.750;11.308;2023-03-01T16:33:08;20.30;;;13.70;;
55134;SDS011;41031;44.750;11.308;2023-03-01T16:35:57;22.23;;;14.50;;